This is the latest recevied weather packets stored in our database for station/object KS5S. If no packets are shown the sender has not sent any weather packets the latest 10 day(s).
| Time | Temp. | Humidity | Pressure | Rain* | Wind** | Luminosity | Snow |
|---|---|---|---|---|---|---|---|
| 1777557624 | 16.67° C | 90% | 1012.2 hPa | 0 mm | - | 46 W/m² | - |
| 1777557320 | 16.67° C | 90% | 1012.6 hPa | 0 mm | - | 38 W/m² | - |
| 1777557017 | 16.67° C | 89% | 1012.6 hPa | 0 mm | - | 37 W/m² | - |
| 1777556712 | 16.67° C | 90% | 1012.4 hPa | 0 mm | - | 33 W/m² | - |
| 1777556409 | 16.67° C | 90% | 1012.1 hPa | 0 mm | - | 40 W/m² | - |
| 1777556109 | 16.67° C | 90% | 1012 hPa | 0 mm | - | 38 W/m² | - |
| 1777555805 | 16.67° C | 89% | 1011.5 hPa | 0 mm | - | 55 W/m² | - |
| 1777555501 | 16.67° C | 90% | 1011.7 hPa | 0 mm | - | 41 W/m² | - |
| 1777555196 | 16.67° C | 90% | 1012 hPa | 0 mm | - | 26 W/m² | - |
| 1777554894 | 16.67° C | 90% | 1012.1 hPa | 0 mm | - | 22 W/m² | - |
| 1777554590 | 16.67° C | 90% | 1011.8 hPa | 0 mm | - | 30 W/m² | - |
| 1777554287 | 16.67° C | 90% | 1012.1 hPa | 0 mm | - | 22 W/m² | - |
| 1777553984 | 16.67° C | 90% | 1011.5 hPa | 0 mm | - | 27 W/m² | - |
| 1777553681 | 16.67° C | 90% | 1011.1 hPa | 0 mm | - | 30 W/m² | - |
| 1777553378 | 16.67° C | 90% | 1011.3 hPa | 0 mm | - | 41 W/m² | - |
| 1777553073 | 16.67° C | 90% | 1011.2 hPa | 0 mm | - | 30 W/m² | - |
| 1777552768 | 16.67° C | 90% | 1010.9 hPa | 0 mm | - | 27 W/m² | - |
| 1777552464 | 16.67° C | 90% | 1011.1 hPa | 0 mm | - | 21 W/m² | - |
| 1777552161 | 17.22° C | 90% | 1011.1 hPa | 0 mm | - | 29 W/m² | - |
| 1777551858 | 17.22° C | 89% | 1011.3 hPa | 0 mm | - | 23 W/m² | - |
| 1777551556 | 17.22° C | 89% | 1011.3 hPa | 0 mm | - | 22 W/m² | - |
| 1777551252 | 17.22° C | 89% | 1011.4 hPa | 0 mm | - | 12 W/m² | - |
| 1777550949 | 17.22° C | 89% | 1011.3 hPa | 0 mm | - | 11 W/m² | - |
| 1777550646 | 17.22° C | 89% | 1011.1 hPa | 0 mm | - | 8 W/m² | - |
| 1777550342 | 17.22° C | 89% | 1011.2 hPa | 0 mm | - | 6 W/m² | - |
* Rain latest hour (hover to see other rain measurements)
** Current wind speed in m/s (hover to see current wind gust speed)